메인 페이지
METAR-TAF:

METAR-TAF

공항 :

망갈로르, 인도

위도: 12-55N, 경도: 074-53E, 고도: 102m

현재 날씨관측

예보는 29분 전, 20:30시(UTC)에 발표되었습니다.
3kt
온도 28°C
습도 79%
기압 1008 hPa
시정: 6000m
고도 2000ft 상공 구름 조금

METAR: VOML 252030Z 09003KT 6000 FEW020 28/24 Q1008 NOSIG

시각: 02:29 (20:59 UTC)

예보

예보는 59분 전, 20:00시(UTC)에 발표되었습니다.
예보 대상 시간: 25일 21시부터 26일 06시까지 (UTC)
동남동5kt
시정: 6000m
고도 1500ft 상공 구름 조금
전환 중
26일 05시부터 26일 06시까지 (UTC)
10kt

TAF: VOML 252000Z 2521/2606 11005KT 6000 FEW015 BECMG 2605/2606 27010KT

4,000개 이상의 공항 관측 자료 및 예보 (METAR 및 TAF 보고).

지도상에서 검색 가능한 기상관측소가 노란 점과 빨간 점으로 표시되어 있습니다.

기상관측소 명을 보려면 표시 위로 마우스를 이동하세요.

날씨 관측과 예보를 보려면 클릭하세요.

지도 변경 : 확대하려면 엑스 표시가 있는 녹색 버튼, 축소하려면 빼기 표시가 있는 녹색 버튼, 다음 페이지의 지도를 보려면 녹색 화살표를 클릭하세요.


METAR-TAF: